Time;durP1;ratioP1;P1;durP2;ratioP2;P2;SDS_P1;SDS_P2;PMS_P1;PMS_P2;Temp;Humidity;BMP_temperature;BMP_pressure;BME280_temperature;BME280_humidity;BME280_pressure;Samples;Min_cycle;Max_cycle;Signal;HPM_P1;HPM_P2
2021/08/22 00:00:10;;;;;;;1.45;1.10;;;;;;;19.89;86.67;101063.28;4989259;28;20033;-68
2021/08/22 00:02:40;;;;;;;2.53;1.50;;;;;;;19.80;87.18;101054.78;5003559;28;20025;-68
2021/08/22 00:05:06;;;;;;;1.85;1.25;;;;;;;19.83;87.08;101058.63;5005052;28;20065;-68
2021/08/22 00:07:32;;;;;;;1.88;1.00;;;;;;;19.79;87.13;101045.81;4991898;28;20033;-68
2021/08/22 00:09:57;;;;;;;2.00;1.23;;;;;;;19.79;87.18;101045.03;5010809;28;20038;-68
2021/08/22 00:12:23;;;;;;;2.30;1.30;;;;;;;19.78;86.91;101054.41;4991699;28;20030;-68
2021/08/22 00:14:48;;;;;;;2.08;1.27;;;;;;;19.76;87.33;101051.31;5010159;28;20465;-68
2021/08/22 00:17:14;;;;;;;1.80;1.20;;;;;;;19.78;86.82;101054.41;5009064;28;20045;-68
2021/08/22 00:19:41;;;;;;;1.73;0.90;;;;;;;19.76;86.73;101057.53;4983156;28;20088;-69
2021/08/22 00:22:06;;;;;;;3.20;1.23;;;;;;;19.73;87.17;101055.63;4990369;28;20033;-68
2021/08/22 00:24:31;;;;;;;1.50;1.10;;;;;;;19.75;87.14;101052.47;5004140;28;20065;-69
2021/08/22 00:26:57;;;;;;;1.92;1.17;;;;;;;19.72;86.96;101056.78;5001693;28;20033;-68
2021/08/22 00:29:22;;;;;;;2.00;0.80;;;;;;;19.69;86.40;101052.16;4994953;28;20029;-69
2021/08/22 00:31:48;;;;;;;1.20;0.93;;;;;;;19.69;86.51;101046.69;4990954;28;20026;-69
2021/08/22 00:34:13;;;;;;;1.23;1.02;;;;;;;19.68;86.71;101044.38;5003791;28;20501;-68
2021/08/22 00:36:38;;;;;;;2.20;0.98;;;;;;;19.61;87.23;101044.41;5007803;28;20090;-68
2021/08/22 00:39:05;;;;;;;0.80;0.80;;;;;;;19.60;87.74;101048.34;5004733;28;20041;-68
2021/08/22 00:41:31;;;;;;;1.50;1.00;;;;;;;19.61;87.53;101037.00;5005779;28;20037;-69
2021/08/22 00:43:58;;;;;;;1.10;1.00;;;;;;;19.62;87.66;101030.38;5005900;28;20547;-69
2021/08/22 00:46:23;;;;;;;1.27;0.90;;;;;;;19.64;87.48;101025.28;5000581;28;20069;-69
2021/08/22 00:48:49;;;;;;;1.88;1.05;;;;;;;19.59;87.24;101033.91;5010806;28;20120;-68
2021/08/22 00:51:18;;;;;;;1.30;0.80;;;;;;;19.57;87.25;101033.53;5008154;28;20175;-68
2021/08/22 00:53:47;;;;;;;1.65;1.02;;;;;;;19.63;86.77;101031.91;5008304;28;20440;-68
2021/08/22 00:56:13;;;;;;;1.30;0.70;;;;;;;19.60;86.71;101030.00;4998660;28;20074;-69
2021/08/22 00:58:39;;;;;;;1.52;0.80;;;;;;;19.70;85.66;101031.06;5001590;28;20038;-68
2021/08/22 01:01:14;;;;;;;1.73;0.73;;;;;;;19.60;86.44;101032.72;4992991;28;20044;-69
2021/08/22 01:03:47;;;;;;;1.05;0.90;;;;;;;19.56;86.28;101033.94;4992716;28;20099;-70
2021/08/22 01:06:50;;;;;;;1.30;1.00;;;;;;;19.53;86.67;101021.84;5003265;28;20049;-68
2021/08/22 01:09:27;;;;;;;1.58;1.00;;;;;;;19.61;85.79;101020.59;4999928;28;20029;-69
2021/08/22 01:12:00;;;;;;;1.17;0.80;;;;;;;19.59;86.23;101016.72;5004912;28;20037;-68
2021/08/22 01:14:31;;;;;;;1.45;1.00;;;;;;;19.54;85.88;101020.69;5010546;28;20037;-68
2021/08/22 01:16:59;;;;;;;2.78;0.90;;;;;;;19.59;85.59;101008.53;5009051;28;20037;-69
2021/08/22 01:19:33;;;;;;;1.00;0.80;;;;;;;19.55;85.16;101011.28;5000279;28;20037;-68
2021/08/22 01:22:00;;;;;;;2.15;0.95;;;;;;;19.48;85.44;101005.13;5005102;28;20037;-68
2021/08/22 01:24:27;;;;;;;3.63;0.88;;;;;;;19.47;85.91;101006.34;5004069;28;20503;-69
2021/08/22 01:26:54;;;;;;;1.02;0.77;;;;;;;19.49;85.58;101001.22;4981171;28;20038;-69
2021/08/22 01:29:22;;;;;;;1.08;0.88;;;;;;;19.40;86.21;100995.44;5005641;28;20030;-68
2021/08/22 01:31:49;;;;;;;1.17;1.00;;;;;;;19.41;85.43;100997.03;5004408;28;20042;-68
2021/08/22 01:34:16;;;;;;;1.75;0.88;;;;;;;19.35;85.90;100993.19;5004047;28;20030;-68
2021/08/22 01:36:43;;;;;;;1.05;0.82;;;;;;;19.38;85.70;100986.88;4997234;28;20030;-68
2021/08/22 01:39:09;;;;;;;1.33;0.95;;;;;;;19.32;86.44;100985.75;5005219;28;20123;-69
2021/08/22 01:41:37;;;;;;;0.80;0.70;;;;;;;19.31;85.58;100979.53;4998130;28;20037;-68
2021/08/22 01:44:05;;;;;;;2.05;0.82;;;;;;;19.32;85.77;100969.34;5006247;28;20075;-69
2021/08/22 01:46:36;;;;;;;1.15;0.98;;;;;;;19.30;85.74;100961.56;4992219;28;20106;-68
2021/08/22 01:49:07;;;;;;;1.33;1.05;;;;;;;19.25;85.91;100966.72;5000242;28;20173;-69
2021/08/22 01:51:34;;;;;;;1.40;0.80;;;;;;;19.22;85.91;100968.28;4985750;28;20030;-69
2021/08/22 01:54:02;;;;;;;1.20;1.00;;;;;;;19.27;85.73;100969.81;5006172;28;20038;-68
2021/08/22 01:56:28;;;;;;;1.35;1.00;;;;;;;19.29;86.05;100967.44;5001409;28;20041;-67
2021/08/22 01:58:54;;;;;;;2.33;1.10;;;;;;;19.26;86.02;100969.03;4997552;28;20042;-69
2021/08/22 02:01:20;;;;;;;1.27;0.82;;;;;;;19.24;85.87;100968.66;5005038;28;20115;-69
2021/08/22 02:03:59;;;;;;;0.75;0.75;;;;;;;19.20;85.49;100962.44;5001102;28;20137;-69
2021/08/22 02:06:32;;;;;;;1.13;0.77;;;;;;;19.18;85.83;100964.81;5001877;28;20065;-69
2021/08/22 02:09:08;;;;;;;1.15;0.82;;;;;;;19.27;84.49;100958.88;5001978;28;20056;-69
2021/08/22 02:11:43;;;;;;;0.95;0.60;;;;;;;19.22;84.93;100962.81;5002105;28;20034;-68
2021/08/22 02:14:12;;;;;;;0.75;0.73;;;;;;;19.19;84.59;100966.38;5005680;28;20049;-68
2021/08/22 02:16:44;;;;;;;1.58;0.70;;;;;;;19.21;84.03;100965.97;4975819;28;20041;-68
2021/08/22 02:19:10;;;;;;;1.88;0.90;;;;;;;19.14;84.91;100964.09;4999394;28;20046;-69
2021/08/22 02:21:38;;;;;;;1.38;0.90;;;;;;;19.14;85.25;100964.09;5012017;28;20172;-69
2021/08/22 02:24:04;;;;;;;1.00;0.75;;;;;;;19.20;84.30;100948.03;5004158;28;20124;-68
2021/08/22 02:26:30;;;;;;;1.33;1.00;;;;;;;19.23;83.70;100952.69;5008663;22;20047;-71
2021/08/22 02:28:57;;;;;;;1.00;0.73;;;;;;;19.21;82.94;100950.38;4983311;28;20501;-71
2021/08/22 02:31:26;;;;;;;0.77;0.68;;;;;;;19.11;83.62;100948.50;4987917;28;20027;-71
2021/08/22 02:33:52;;;;;;;0.77;0.77;;;;;;;19.08;84.12;100938.41;4985647;28;20171;-71
2021/08/22 02:36:17;;;;;;;1.30;0.73;;;;;;;19.09;84.40;100937.22;4977020;28;20119;-72
2021/08/22 02:38:43;;;;;;;1.27;0.80;;;;;;;19.05;84.49;100931.00;4991062;28;20034;-71
2021/08/22 02:41:08;;;;;;;0.65;0.57;;;;;;;19.08;83.77;100937.63;4991151;28;20741;-71
2021/08/22 02:43:34;;;;;;;0.90;0.70;;;;;;;19.04;83.23;100931.41;4991488;28;20030;-71
2021/08/22 02:45:59;;;;;;;1.02;0.60;;;;;;;19.02;83.29;100936.50;4988027;28;20524;-71
2021/08/22 02:48:25;;;;;;;1.65;0.80;;;;;;;18.91;84.45;100926.47;4973904;28;20034;-71
2021/08/22 02:50:50;;;;;;;4.45;1.10;;;;;;;18.94;83.12;100919.44;4975348;28;20399;-67
2021/08/22 02:53:15;;;;;;;0.90;0.80;;;;;;;18.86;82.82;100915.22;4969114;28;20018;-71
2021/08/22 02:55:41;;;;;;;0.63;0.63;;;;;;;18.85;83.27;100905.47;4992491;28;20037;-71
2021/08/22 02:58:06;;;;;;;1.08;0.60;;;;;;;18.82;83.31;100909.78;4988261;28;20034;-68
2021/08/22 03:00:32;;;;;;;1.20;0.70;;;;;;;18.76;82.77;100905.94;4985224;28;20046;-69
2021/08/22 03:02:57;;;;;;;1.15;0.80;;;;;;;18.72;83.32;100907.13;4990779;28;20049;-70
2021/08/22 03:05:22;;;;;;;1.10;0.77;;;;;;;18.62;83.95;100913.50;4988358;28;20434;-71
2021/08/22 03:07:48;;;;;;;1.08;0.80;;;;;;;18.69;83.52;100921.59;4985020;28;20042;-70
2021/08/22 03:10:14;;;;;;;1.67;0.82;;;;;;;18.70;83.31;100914.94;4989339;28;20089;-71
2021/08/22 03:12:39;;;;;;;0.77;0.77;;;;;;;18.78;83.44;100917.22;4972090;28;20045;-71
2021/08/22 03:15:06;;;;;;;1.65;0.75;;;;;;;18.78;83.19;100919.19;4985727;28;20035;-71
2021/08/22 03:17:32;;;;;;;1.33;0.70;;;;;;;18.64;82.49;100906.44;4988042;28;20118;-71
2021/08/22 03:19:57;;;;;;;1.55;0.90;;;;;;;18.66;83.20;100908.78;4986027;28;20117;-70
2021/08/22 03:22:23;;;;;;;0.95;0.73;;;;;;;18.72;83.10;100899.72;4974978;28;20472;-72
2021/08/22 03:24:49;;;;;;;2.78;0.80;;;;;;;18.79;82.50;100899.66;4992135;28;20046;-67
2021/08/22 03:27:15;;;;;;;0.80;0.60;;;;;;;18.78;82.50;100898.13;4987883;28;20046;-71
2021/08/22 03:29:40;;;;;;;1.20;0.90;;;;;;;18.75;82.66;100900.88;4985738;28;20410;-71
2021/08/22 03:32:06;;;;;;;1.33;0.60;;;;;;;18.66;83.28;100906.81;4974160;28;20494;-71
2021/08/22 03:34:32;;;;;;;3.25;0.90;;;;;;;18.69;83.26;100897.03;4975403;28;20117;-71
2021/08/22 03:36:57;;;;;;;1.70;0.65;;;;;;;18.77;83.01;100901.25;4982186;28;20088;-69
2021/08/22 03:39:22;;;;;;;1.67;0.80;;;;;;;18.79;82.15;100896.94;4970823;28;20141;-71
2021/08/22 03:41:48;;;;;;;1.63;0.70;;;;;;;18.74;82.46;100897.38;4970515;28;20062;-70
2021/08/22 03:44:13;;;;;;;1.13;0.63;;;;;;;18.71;82.81;100887.28;4984018;28;20117;-70
2021/08/22 03:46:39;;;;;;;3.90;1.27;;;;;;;18.63;82.22;100895.94;4987725;28;20045;-71
2021/08/22 03:49:04;;;;;;;1.65;0.90;;;;;;;18.59;82.71;100893.22;4982692;28;20038;-71
2021/08/22 03:51:30;;;;;;;2.63;0.70;;;;;;;18.55;83.15;100897.94;4989106;28;20105;-71
2021/08/22 03:53:55;;;;;;;1.30;0.65;;;;;;;18.56;83.78;100888.56;4985639;28;20459;-71
2021/08/22 03:56:20;;;;;;;2.05;0.90;;;;;;;18.61;83.16;100892.81;4970209;28;20088;-71
2021/08/22 03:58:46;;;;;;;1.73;0.70;;;;;;;18.53;83.93;100894.06;4991374;28;20034;-71
2021/08/22 04:01:11;;;;;;;1.40;0.70;;;;;;;18.52;83.10;100895.25;4989612;28;20515;-71
2021/08/22 04:03:47;;;;;;;3.60;0.70;;;;;;;18.48;83.60;100889.81;4989319;28;20049;-70
2021/08/22 04:06:36;;;;;;;0.90;0.73;;;;;;;18.53;83.85;100883.16;4969507;28;20033;-71
2021/08/22 04:09:02;;;;;;;1.60;0.85;;;;;;;18.54;83.38;100879.25;4986986;28;20399;-71
2021/08/22 04:11:29;;;;;;;0.68;0.60;;;;;;;18.49;83.62;100877.72;4981906;28;20027;-71
2021/08/22 04:13:55;;;;;;;2.85;0.80;;;;;;;18.55;82.96;100881.56;4989146;28;20057;-71
2021/08/22 04:16:20;;;;;;;1.55;0.60;;;;;;;18.58;83.07;100888.94;4986877;28;20046;-71
2021/08/22 04:18:45;;;;;;;0.77;0.60;;;;;;;18.54;83.02;100885.47;4965924;28;20022;-71
2021/08/22 04:21:11;;;;;;;1.83;0.90;;;;;;;18.56;82.78;100887.81;4991105;28;20038;-71
2021/08/22 04:23:38;;;;;;;2.20;0.80;;;;;;;18.57;83.62;100883.88;4984632;28;20112;-69
2021/08/22 04:26:04;;;;;;;0.60;0.50;;;;;;;18.58;82.82;100871.81;4990223;28;20073;-69
2021/08/22 04:28:29;;;;;;;1.45;0.68;;;;;;;18.55;83.23;100869.88;4989635;28;20124;-69
2021/08/22 04:30:54;;;;;;;0.60;0.50;;;;;;;18.58;82.94;100872.56;4983139;28;20034;-69
2021/08/22 04:33:20;;;;;;;2.00;0.77;;;;;;;18.53;82.98;100866.78;4986980;28;20031;-69
2021/08/22 04:35:45;;;;;;;0.85;0.80;;;;;;;18.50;83.16;100868.38;4984171;28;20400;-69
2021/08/22 04:38:11;;;;;;;0.85;0.73;;;;;;;18.48;83.22;100873.47;4958714;28;20114;-69
2021/08/22 04:40:38;;;;;;;0.50;0.50;;;;;;;18.46;84.00;100861.38;4984207;28;20041;-69
2021/08/22 04:43:04;;;;;;;11.90;2.17;;;;;;;18.44;83.74;100869.97;4987844;28;20039;-69
2021/08/22 04:45:29;;;;;;;0.75;0.60;;;;;;;18.36;83.60;100873.13;4985677;28;20065;-69
2021/08/22 04:47:58;;;;;;;0.70;0.45;;;;;;;18.39;84.26;100869.63;4972014;28;20044;-69
2021/08/22 04:50:23;;;;;;;0.75;0.57;;;;;;;18.39;83.24;100869.63;4969248;28;20038;-69
2021/08/22 04:52:49;;;;;;;0.90;0.60;;;;;;;18.38;84.11;100881.69;4975147;28;20035;-69
2021/08/22 04:55:16;;;;;;;0.80;0.55;;;;;;;18.43;83.73;100887.50;4990710;28;20026;-69
2021/08/22 04:57:42;;;;;;;1.08;0.70;;;;;;;18.45;83.78;100876.97;4991526;28;20129;-69
2021/08/22 05:00:08;;;;;;;1.20;0.55;;;;;;;18.44;84.05;100880.09;4973017;28;20109;-69
2021/08/22 05:02:33;;;;;;;0.93;0.60;;;;;;;18.51;83.78;100880.81;4986508;28;20578;-69
2021/08/22 05:04:59;;;;;;;1.45;0.60;;;;;;;18.51;83.16;100874.59;4989231;28;20113;-69
2021/08/22 05:07:24;;;;;;;0.50;0.50;;;;;;;18.54;83.47;100876.53;4977983;28;20037;-69
2021/08/22 05:09:50;;;;;;;0.90;0.70;;;;;;;18.56;83.39;100883.09;4975524;28;20499;-69
2021/08/22 05:12:15;;;;;;;1.08;0.70;;;;;;;18.53;82.74;100883.16;4985955;28;20029;-69
2021/08/22 05:14:41;;;;;;;1.00;0.73;;;;;;;18.54;82.56;100879.25;4991156;28;20535;-69
2021/08/22 05:17:06;;;;;;;0.80;0.60;;;;;;;18.60;82.66;100883.84;4980374;28;20550;-69
2021/08/22 05:19:32;;;;;;;0.80;0.70;;;;;;;18.51;83.22;100885.50;4985754;28;20035;-69
2021/08/22 05:21:57;;;;;;;0.75;0.73;;;;;;;18.56;83.39;100877.66;4990418;28;20041;-69
2021/08/22 05:24:23;;;;;;;2.63;1.00;;;;;;;18.60;83.86;100888.56;4990432;28;20030;-69
2021/08/22 05:26:48;;;;;;;1.13;0.63;;;;;;;18.62;83.15;100888.94;4987910;28;20034;-69
2021/08/22 05:29:14;;;;;;;0.68;0.60;;;;;;;18.62;82.70;100878.78;4967355;28;20404;-69
2021/08/22 05:31:39;;;;;;;0.80;0.73;;;;;;;18.53;83.15;100888.59;4988789;28;20031;-69
2021/08/22 05:34:05;;;;;;;0.90;0.60;;;;;;;18.55;82.74;100880.78;4979406;28;20576;-69
2021/08/22 05:36:35;;;;;;;1.10;0.70;;;;;;;18.55;82.61;100888.97;4984688;28;20491;-69
2021/08/22 05:39:01;;;;;;;0.85;0.50;;;;;;;18.49;83.08;100898.75;4990617;28;20038;-69
2021/08/22 05:41:27;;;;;;;0.82;0.70;;;;;;;18.47;83.00;100877.34;4989383;28;20160;-69
2021/08/22 05:43:52;;;;;;;0.77;0.55;;;;;;;18.48;82.87;100884.38;4983445;28;20097;-69
2021/08/22 05:46:18;;;;;;;0.80;0.63;;;;;;;18.48;83.18;100898.00;4974280;28;20451;-69
2021/08/22 05:48:43;;;;;;;1.40;0.70;;;;;;;18.48;83.10;100895.28;4990485;28;20121;-69
2021/08/22 05:51:16;;;;;;;0.93;0.70;;;;;;;18.47;83.40;100896.44;4982239;28;20038;-69
2021/08/22 05:53:43;;;;;;;1.23;0.90;;;;;;;18.46;84.19;100896.84;4975434;28;20042;-69
2021/08/22 05:56:09;;;;;;;1.15;0.63;;;;;;;18.46;83.88;100894.13;4977118;28;20057;-69
2021/08/22 05:58:35;;;;;;;0.90;0.65;;;;;;;18.32;84.38;100899.66;4975295;28;20097;-69
2021/08/22 06:01:01;;;;;;;1.25;0.63;;;;;;;18.33;83.57;100901.22;4974384;28;20563;-69
2021/08/22 06:03:26;;;;;;;0.60;0.60;;;;;;;18.36;84.78;100906.63;4977327;28;20081;-69
2021/08/22 06:05:53;;;;;;;1.02;0.80;;;;;;;18.35;85.83;100896.13;4981950;28;20038;-69
2021/08/22 06:08:18;;;;;;;1.67;0.60;;;;;;;18.33;88.50;100898.50;4985746;28;20027;-69
2021/08/22 06:10:44;;;;;;;1.25;0.70;;;;;;;18.45;88.48;100893.34;4985866;28;20089;-69
2021/08/22 06:13:10;;;;;;;0.85;0.77;;;;;;;18.44;88.93;100899.19;4992907;28;20044;-69
2021/08/22 06:15:35;;;;;;;1.20;0.70;;;;;;;18.48;89.97;100897.22;4997569;28;20042;-69
2021/08/22 06:18:01;;;;;;;1.00;0.75;;;;;;;18.42;88.84;100887.88;4989162;28;20517;-69
2021/08/22 06:20:26;;;;;;;0.80;0.68;;;;;;;18.44;89.66;100885.56;4990279;28;20272;-69
2021/08/22 06:22:51;;;;;;;2.60;0.73;;;;;;;18.35;89.52;100885.97;4993663;28;20038;-69
2021/08/22 06:25:17;;;;;;;1.25;0.75;;;;;;;18.33;87.61;100882.88;4981992;28;20122;-69
2021/08/22 06:27:42;;;;;;;0.80;0.70;;;;;;;18.29;88.31;100876.66;4982219;28;20038;-69
2021/08/22 06:30:08;;;;;;;2.45;0.90;;;;;;;18.31;89.10;100889.94;4975385;28;20037;-69
2021/08/22 06:32:34;;;;;;;1.67;0.90;;;;;;;18.28;90.04;100883.31;4992367;28;20058;-69
2021/08/22 06:34:59;;;;;;;0.40;0.40;;;;;;;18.30;89.50;100891.09;4993345;28;20042;-69
2021/08/22 06:37:25;;;;;;;0.90;0.70;;;;;;;18.33;89.53;100884.84;4974315;28;20027;-69
2021/08/22 06:39:50;;;;;;;1.00;0.70;;;;;;;18.33;89.30;100885.59;4993085;28;20257;-69
2021/08/22 06:42:16;;;;;;;0.77;0.63;;;;;;;18.29;89.30;100878.66;4990455;28;20039;-69
2021/08/22 06:44:42;;;;;;;0.80;0.68;;;;;;;18.37;89.27;100886.34;4974799;28;20030;-69
2021/08/22 06:47:10;;;;;;;1.02;0.73;;;;;;;18.41;89.18;100878.13;4973907;28;20035;-71
2021/08/22 06:49:37;;;;;;;1.80;0.80;;;;;;;18.38;88.69;100884.41;4992850;28;20134;-71
2021/08/22 06:52:04;;;;;;;1.00;0.77;;;;;;;18.36;87.31;100886.75;4989538;28;20148;-69
2021/08/22 06:54:30;;;;;;;0.90;0.70;;;;;;;18.40;88.59;100890.25;4977321;28;20045;-71
2021/08/22 06:56:56;;;;;;;5.25;0.82;;;;;;;18.44;88.06;100874.66;4975343;28;20046;-69
2021/08/22 06:59:24;;;;;;;2.40;0.88;;;;;;;18.47;88.73;100884.75;4993316;28;20030;-70
2021/08/22 07:01:50;;;;;;;1.75;0.82;;;;;;;18.43;87.59;100886.72;4981921;28;20487;-70
2021/08/22 07:04:16;;;;;;;1.20;0.80;;;;;;;18.47;87.64;100880.06;4985331;28;20040;-71
2021/08/22 07:06:41;;;;;;;0.85;0.73;;;;;;;18.51;86.85;100882.78;4983328;28;20085;-71
2021/08/22 07:09:07;;;;;;;0.80;0.60;;;;;;;18.55;87.59;100880.78;4987668;28;20096;-71
2021/08/22 07:11:33;;;;;;;0.65;0.52;;;;;;;18.59;86.92;100901.41;4985266;28;20026;-71
2021/08/22 07:13:58;;;;;;;0.73;0.70;;;;;;;18.58;87.37;100923.66;4985169;28;20562;-71
2021/08/22 07:16:25;;;;;;;1.10;0.70;;;;;;;18.59;87.76;100947.78;4989313;28;20474;-71
2021/08/22 07:18:51;;;;;;;1.00;0.85;;;;;;;18.49;85.73;100940.47;4987909;28;20026;-71
2021/08/22 07:21:16;;;;;;;1.08;0.80;;;;;;;18.60;86.78;100922.06;4967830;28;20061;-71
2021/08/22 07:23:43;;;;;;;0.90;0.70;;;;;;;18.64;87.15;100927.50;4976024;28;20065;-71
2021/08/22 07:26:09;;;;;;;1.05;0.80;;;;;;;18.70;87.42;100940.28;4976044;28;20042;-71
2021/08/22 07:28:34;;;;;;;1.80;0.73;;;;;;;18.68;87.28;100933.69;4977118;28;20080;-70
2021/08/22 07:31:04;;;;;;;2.70;1.15;;;;;;;18.81;86.80;100927.31;4975182;28;20030;-71
2021/08/22 07:33:30;;;;;;;0.98;0.75;;;;;;;18.91;86.41;100928.44;4963765;28;20038;-71
2021/08/22 07:35:56;;;;;;;1.02;0.70;;;;;;;19.04;86.73;100929.47;4989445;28;20031;-71
2021/08/22 07:38:22;;;;;;;0.90;0.70;;;;;;;19.11;86.89;100929.38;4985193;28;20033;-71
2021/08/22 07:40:47;;;;;;;1.10;0.80;;;;;;;19.12;87.03;100941.09;4990027;28;20038;-71
2021/08/22 07:43:13;;;;;;;1.20;0.60;;;;;;;19.11;86.53;100923.16;4992232;28;20038;-71
2021/08/22 07:45:38;;;;;;;1.02;0.80;;;;;;;19.19;85.41;100909.03;4966456;28;20038;-71
2021/08/22 07:48:04;;;;;;;0.85;0.80;;;;;;;19.21;85.01;100916.81;4993147;28;20037;-71
2021/08/22 07:50:29;;;;;;;1.48;0.88;;;;;;;19.12;85.93;100925.50;4992034;28;20086;-69
2021/08/22 07:52:55;;;;;;;1.00;0.70;;;;;;;19.15;86.52;100924.66;4972198;28;20040;-71
2021/08/22 07:55:20;;;;;;;0.88;0.65;;;;;;;19.19;85.42;100917.22;4978197;28;20038;-71
2021/08/22 07:57:46;;;;;;;0.85;0.77;;;;;;;19.14;83.79;100906.75;4975088;28;20037;-70
2021/08/22 08:00:12;;;;;;;1.00;0.80;;;;;;;19.14;84.62;100922.34;4975627;28;20042;-71
2021/08/22 08:02:37;;;;;;;1.17;0.77;;;;;;;19.29;86.05;100927.25;4973522;28;20055;-71
2021/08/22 08:05:03;;;;;;;1.30;0.77;;;;;;;19.38;86.02;100927.56;4974199;28;20487;-71
2021/08/22 08:07:28;;;;;;;0.95;0.63;;;;;;;19.57;86.17;100920.69;4974726;28;20089;-71
2021/08/22 08:09:55;;;;;;;0.70;0.65;;;;;;;19.74;85.24;100927.94;4955744;28;20034;-70
2021/08/22 08:12:20;;;;;;;1.17;0.65;;;;;;;19.79;83.52;100920.03;4958443;28;20430;-70
2021/08/22 08:14:46;;;;;;;1.20;0.60;;;;;;;19.85;83.34;100920.34;4972940;28;20038;-71
2021/08/22 08:17:11;;;;;;;1.20;0.60;;;;;;;19.76;83.23;100929.06;4972680;28;20472;-71
2021/08/22 08:19:37;;;;;;;2.00;0.82;;;;;;;19.90;82.63;100925.34;4959108;28;20035;-71
2021/08/22 08:22:05;;;;;;;1.23;0.70;;;;;;;19.96;83.10;100917.47;4943408;28;20038;-71
2021/08/22 08:24:30;;;;;;;0.80;0.52;;;;;;;19.92;82.46;100922.22;4974480;28;20065;-71
2021/08/22 08:26:56;;;;;;;1.17;0.80;;;;;;;19.97;81.62;100921.75;4973575;28;20038;-71
2021/08/22 08:29:21;;;;;;;4.10;0.80;;;;;;;20.01;83.38;100925.22;4970635;28;20088;-71
2021/08/22 08:31:47;;;;;;;1.00;0.90;;;;;;;20.00;84.40;100921.72;4974913;28;20082;-70
2021/08/22 08:34:12;;;;;;;1.60;0.60;;;;;;;20.04;83.51;100921.66;4973669;28;20039;-70
2021/08/22 08:36:38;;;;;;;0.70;0.63;;;;;;;20.11;82.18;100922.31;4958724;28;20136;-70
2021/08/22 08:39:03;;;;;;;0.98;0.80;;;;;;;20.08;81.15;100925.91;4976280;28;20045;-70
2021/08/22 08:41:29;;;;;;;1.50;0.68;;;;;;;20.09;81.82;100926.69;4990417;28;20034;-72
2021/08/22 08:43:55;;;;;;;0.85;0.68;;;;;;;20.13;81.65;100927.41;4981356;28;20916;-71
2021/08/22 08:46:37;;;;;;;0.77;0.60;;;;;;;20.13;81.26;100927.41;4990718;28;20054;-71
2021/08/22 08:49:10;;;;;;;0.80;0.60;;;;;;;20.14;80.97;100924.25;4972923;28;20038;-71
2021/08/22 08:52:07;;;;;;;0.80;0.68;;;;;;;20.14;82.34;100932.47;4972545;28;20533;-72
2021/08/22 08:54:43;;;;;;;0.95;0.80;;;;;;;20.18;83.08;100940.59;4987573;28;20037;-70
2021/08/22 08:57:08;;;;;;;0.60;0.60;;;;;;;20.14;82.18;100945.34;4991104;28;20406;-69
2021/08/22 08:59:40;;;;;;;0.98;0.55;;;;;;;20.13;80.30;100930.13;4973851;28;20033;-71
2021/08/22 09:02:06;;;;;;;1.27;0.60;;;;;;;20.04;80.33;100933.38;4987718;28;20064;-71
2021/08/22 09:04:40;;;;;;;0.70;0.57;;;;;;;20.03;80.88;100940.03;4990511;28;20058;-71
2021/08/22 09:07:46;;;;;;;2.75;0.70;;;;;;;19.92;79.56;100935.91;4988014;28;20131;-71
2021/08/22 09:10:49;;;;;;;1.38;0.60;;;;;;;19.92;79.14;100938.63;4943550;28;20054;-71
2021/08/22 09:13:45;;;;;;;1.20;0.80;;;;;;;19.93;79.76;100940.19;4983616;28;20034;-69
2021/08/22 09:16:35;;;;;;;0.82;0.60;;;;;;;19.95;79.76;100943.28;4985435;28;20026;-71
2021/08/22 09:19:39;;;;;;;2.13;0.80;;;;;;;19.97;79.99;100940.91;4982746;28;20881;-71
2021/08/22 09:22:42;;;;;;;0.68;0.60;;;;;;;19.89;79.54;100942.97;4979331;28;20038;-71
2021/08/22 09:25:45;;;;;;;1.25;0.90;;;;;;;19.92;78.83;100942.13;4984138;28;20429;-70
2021/08/22 09:28:22;;;;;;;0.80;0.63;;;;;;;19.82;79.53;100945.78;4976260;28;20399;-71
2021/08/22 09:31:07;;;;;;;0.77;0.75;;;;;;;19.82;80.78;100951.25;4975468;28;20060;-69
2021/08/22 09:34:09;;;;;;;2.15;0.82;;;;;;;19.84;80.26;100946.13;4977341;28;20052;-71
2021/08/22 09:37:12;;;;;;;2.80;0.70;;;;;;;19.87;81.36;100953.53;4984329;28;20030;-70
2021/08/22 09:40:14;;;;;;;3.00;0.90;;;;;;;19.86;83.13;100957.44;4980451;28;20045;-70
2021/08/22 09:43:11;;;;;;;1.35;0.80;;;;;;;19.85;82.29;100960.59;4985344;28;20133;-69
2021/08/22 09:46:07;;;;;;;0.98;0.80;;;;;;;19.93;84.69;100951.91;4986299;28;20040;-70
2021/08/22 09:49:10;;;;;;;1.13;0.63;;;;;;;19.85;82.86;100960.59;4958818;28;20042;-69
2021/08/22 09:51:57;;;;;;;1.25;0.70;;;;;;;19.79;83.79;100957.53;4984945;28;20037;-71
2021/08/22 09:54:42;;;;;;;1.10;0.68;;;;;;;19.91;84.81;100961.69;4990062;28;20030;-71
2021/08/22 09:57:49;;;;;;;3.80;1.27;;;;;;;19.95;85.65;100963.19;4984186;28;20038;-71
2021/08/22 10:00:26;;;;;;;3.17;0.80;;;;;;;19.91;84.87;100964.41;4916792;28;20044;-70
2021/08/22 10:03:13;;;;;;;0.82;0.75;;;;;;;19.94;85.45;100971.81;4958673;28;20116;-71
2021/08/22 10:06:02;;;;;;;1.02;0.70;;;;;;;20.03;85.83;100964.66;4987394;28;20034;-71
2021/08/22 10:09:05;;;;;;;1.20;0.80;;;;;;;20.11;87.55;100968.81;4945262;28;20047;-71
2021/08/22 10:11:41;;;;;;;0.90;0.80;;;;;;;20.18;86.74;100966.03;4978401;28;20042;-71
2021/08/22 10:14:11;;;;;;;1.42;0.77;;;;;;;20.28;87.18;100967.84;4976963;28;20147;-72
2021/08/22 10:16:38;;;;;;;1.15;0.77;;;;;;;20.22;85.83;100968.72;4976386;28;20376;-71
2021/08/22 10:19:08;;;;;;;0.70;0.68;;;;;;;20.18;87.53;100959.75;4983469;28;20031;-70
2021/08/22 10:21:34;;;;;;;0.90;0.68;;;;;;;20.21;87.14;100961.72;4972007;28;20085;-70
2021/08/22 10:24:35;;;;;;;0.90;0.80;;;;;;;20.14;87.61;100964.50;4986359;28;20041;-71
2021/08/22 10:27:02;;;;;;;1.38;0.55;;;;;;;20.14;88.00;100967.22;4979372;28;20046;-71
2021/08/22 10:29:30;;;;;;;1.52;0.90;;;;;;;19.99;87.71;100968.63;4981606;28;20038;-71
2021/08/22 10:31:55;;;;;;;0.98;0.70;;;;;;;20.04;90.09;100970.88;4970562;28;20038;-68
2021/08/22 10:34:22;;;;;;;1.15;0.80;;;;;;;19.97;90.53;100969.03;4982160;28;20061;-71
2021/08/22 10:36:48;;;;;;;4.50;0.90;;;;;;;19.96;90.96;100972.94;4977916;28;20046;-72
2021/08/22 10:39:23;;;;;;;1.23;0.82;;;;;;;19.91;91.99;100967.94;4980738;28;20027;-71
2021/08/22 10:41:55;;;;;;;0.77;0.70;;;;;;;19.79;92.31;100973.94;4977854;28;20414;-71
2021/08/22 10:44:33;;;;;;;0.95;0.85;;;;;;;19.61;93.39;100978.81;4978525;28;20039;-72
2021/08/22 10:47:07;;;;;;;1.17;0.88;;;;;;;19.59;94.59;100976.50;4976659;28;20037;-70
2021/08/22 10:49:53;;;;;;;1.08;0.90;;;;;;;19.46;94.99;100983.69;4982891;28;20049;-71
2021/08/22 10:52:25;;;;;;;2.35;0.85;;;;;;;19.52;95.99;100992.22;4978460;28;20800;-71
2021/08/22 10:55:13;;;;;;;0.85;0.70;;;;;;;19.44;97.27;100985.25;4982688;28;20053;-68
2021/08/22 11:00:18;;;;;;;1.30;0.98;;;;;;;19.51;98.40;100980.50;4964795;28;20070;-70
2021/08/22 11:02:43;;;;;;;1.40;0.98;;;;;;;19.49;98.56;100993.78;4970539;28;20049;-69
2021/08/22 11:05:17;;;;;;;2.05;1.30;;;;;;;19.48;98.85;100981.31;4985730;28;20026;-72
2021/08/22 11:07:43;;;;;;;1.70;1.17;;;;;;;19.52;99.20;100989.47;4981754;28;20077;-72
2021/08/22 11:10:13;;;;;;;2.35;1.50;;;;;;;19.52;100.00;100990.25;4964199;28;20053;-71
2021/08/22 11:12:39;;;;;;;1.55;1.25;;;;;;;19.60;100.00;100978.06;4974446;28;20033;-72
2021/08/22 11:15:07;;;;;;;1.05;0.95;;;;;;;19.67;100.00;100980.72;4989162;28;20038;-71
2021/08/22 11:17:32;;;;;;;1.23;0.95;;;;;;;19.70;100.00;100988.09;4988739;28;20113;-70
2021/08/22 11:20:12;;;;;;;1.85;1.27;;;;;;;19.67;100.00;100985.41;4991781;28;20129;-71
2021/08/22 11:22:38;;;;;;;1.77;1.20;;;;;;;19.77;100.00;100989.97;4988433;28;20045;-69
2021/08/22 11:25:05;;;;;;;2.63;1.20;;;;;;;19.78;100.00;100984.09;4974361;28;20088;-72
2021/08/22 11:27:31;;;;;;;2.50;1.55;;;;;;;19.63;100.00;100988.19;4972872;28;20030;-68
2021/08/22 11:30:09;;;;;;;2.20;1.38;;;;;;;19.71;100.00;100999.81;4985890;28;20417;-72
2021/08/22 11:32:36;;;;;;;3.35;1.40;;;;;;;19.69;100.00;101004.91;4982210;28;20041;-69
2021/08/22 11:35:14;;;;;;;1.42;1.15;;;;;;;19.74;100.00;100999.75;4985791;28;20050;-72
2021/08/22 11:37:40;;;;;;;1.67;1.23;;;;;;;19.69;100.00;101011.16;4968434;28;20034;-71